createdAt,value
2019-02-02T00:01:03.795Z,33.07
2019-02-02T00:02:17.760Z,33.73
2019-02-02T00:03:22.161Z,32.27
2019-02-02T00:04:26.662Z,35.33
2019-02-02T00:05:31.273Z,34.00
2019-02-02T00:06:35.891Z,31.90
2019-02-02T00:07:40.419Z,37.03
2019-02-02T00:08:44.959Z,32.93
2019-02-02T00:09:49.373Z,31.03
2019-02-02T00:10:54.171Z,29.77
2019-02-02T00:11:58.731Z,34.80
2019-02-02T00:13:03.232Z,32.70
2019-02-02T00:14:08.168Z,32.70
2019-02-02T00:15:12.716Z,35.07
2019-02-02T00:16:17.234Z,28.37
2019-02-02T00:17:21.737Z,31.53
2019-02-02T00:18:26.193Z,34.20
2019-02-02T00:19:30.618Z,30.97
2019-02-02T00:20:35.207Z,32.00
2019-02-02T00:21:39.734Z,28.03
2019-02-02T00:22:44.267Z,29.20
2019-02-02T00:23:48.748Z,30.57
2019-02-02T00:24:53.228Z,29.90
2019-02-02T00:25:57.659Z,29.90
2019-02-02T00:27:02.421Z,30.63
2019-02-02T00:28:10.108Z,30.07
2019-02-02T00:29:14.571Z,29.27
2019-02-02T00:30:19.212Z,30.80
2019-02-02T00:31:23.795Z,28.27
2019-02-02T00:32:28.318Z,28.60
2019-02-02T00:33:33.094Z,27.93
2019-02-02T00:34:37.696Z,29.97
2019-02-02T00:35:42.201Z,31.93
2019-02-02T00:36:46.877Z,32.77
2019-02-02T00:37:51.393Z,29.90
2019-02-02T00:38:55.915Z,32.70
2019-02-02T00:40:00.389Z,35.57
2019-02-02T00:41:05.374Z,38.47
2019-02-02T00:42:09.853Z,27.73
2019-02-02T00:43:14.313Z,33.10
2019-02-02T00:44:18.798Z,29.97
2019-02-02T00:45:23.388Z,30.43
2019-02-02T00:46:27.967Z,30.73
2019-02-02T00:47:32.617Z,35.27
2019-02-02T00:48:37.114Z,32.83
2019-02-02T00:49:41.576Z,30.43
2019-02-02T00:50:46.159Z,29.73
2019-02-02T00:51:50.635Z,31.27
2019-02-02T00:52:55.299Z,31.20
2019-02-02T00:53:59.733Z,30.30
2019-02-02T00:55:04.710Z,28.87
2019-02-02T00:56:10.527Z,30.33
2019-02-02T00:57:14.962Z,32.30
2019-02-02T00:58:19.400Z,29.03
2019-02-02T00:59:23.861Z,33.27
2019-02-02T01:00:29.151Z,32.60
2019-02-02T01:01:33.842Z,37.07
2019-02-02T01:02:38.793Z,30.07
2019-02-02T01:03:43.232Z,35.53
2019-02-02T01:04:47.807Z,34.70
2019-02-02T01:05:52.362Z,32.67
2019-02-02T01:06:56.847Z,30.07
2019-02-02T01:08:01.487Z,29.70
2019-02-02T01:09:16.463Z,31.20
2019-02-02T01:10:24.483Z,29.43
2019-02-02T01:11:29.148Z,30.20
2019-02-02T01:12:33.785Z,29.13
2019-02-02T01:13:38.655Z,32.70
2019-02-02T01:14:43.188Z,30.77
2019-02-02T01:15:47.693Z,30.97
2019-02-02T01:16:52.257Z,33.90
2019-02-02T01:17:56.842Z,30.20
2019-02-02T01:19:01.387Z,31.17
2019-02-02T01:20:08.415Z,31.73
2019-02-02T01:21:12.782Z,30.80
2019-02-02T01:22:17.282Z,33.53
2019-02-02T01:23:21.754Z,27.97
2019-02-02T01:24:26.536Z,34.40
2019-02-02T01:25:31.167Z,31.40
2019-02-02T01:26:35.592Z,32.97
2019-02-02T01:27:40.029Z,33.53
2019-02-02T01:28:47.508Z,33.13
2019-02-02T01:29:51.935Z,31.47
2019-02-02T01:30:56.399Z,28.63
2019-02-02T01:32:00.879Z,29.87
2019-02-02T01:33:05.618Z,31.60
2019-02-02T01:34:10.412Z,32.87
2019-02-02T01:35:15.921Z,35.40
2019-02-02T01:36:20.400Z,33.27
2019-02-02T01:37:24.947Z,31.63
2019-02-02T01:38:29.540Z,34.23
2019-02-02T01:39:34.126Z,30.23
2019-02-02T01:40:39.087Z,30.07
2019-02-02T01:41:43.623Z,30.90
2019-02-02T01:42:48.257Z,29.17
2019-02-02T01:43:52.768Z,30.13
2019-02-02T01:44:57.284Z,31.07
2019-02-02T01:46:01.849Z,31.90
2019-02-02T01:47:06.371Z,30.07
2019-02-02T01:48:11.540Z,27.73
2019-02-02T01:49:16.326Z,31.17
2019-02-02T01:50:22.566Z,30.63
2019-02-02T01:51:27.079Z,31.00
2019-02-02T01:52:31.705Z,31.43
2019-02-02T01:53:36.216Z,34.60
2019-02-02T01:54:40.814Z,33.67
2019-02-02T01:55:45.538Z,32.80
2019-02-02T01:56:49.984Z,28.97
2019-02-02T01:57:54.531Z,28.60
2019-02-02T01:58:59.242Z,30.60
2019-02-02T02:00:03.859Z,29.47
2019-02-02T02:01:08.403Z,29.60
2019-02-02T02:02:12.956Z,32.20
2019-02-02T02:03:17.850Z,27.17
2019-02-02T02:04:22.420Z,30.47
2019-02-02T02:05:27.142Z,31.33
2019-02-02T02:06:31.710Z,28.13
2019-02-02T02:07:36.108Z,31.40
2019-02-02T02:08:40.534Z,32.10
2019-02-02T02:09:45.169Z,28.63
2019-02-02T02:10:49.697Z,30.10
2019-02-02T02:11:54.233Z,32.00
2019-02-02T02:12:58.690Z,31.37
2019-02-02T02:14:03.912Z,30.17
2019-02-02T02:15:13.131Z,30.47
2019-02-02T02:16:17.938Z,31.73
2019-02-02T02:17:22.421Z,31.30
2019-02-02T02:18:26.810Z,32.17
2019-02-02T02:19:31.304Z,33.57
2019-02-02T02:20:35.901Z,30.80
2019-02-02T02:21:40.490Z,35.63
2019-02-02T02:22:45.528Z,34.60
2019-02-02T02:23:49.935Z,30.67
2019-02-02T02:24:54.597Z,30.07
2019-02-02T02:25:59.164Z,29.03
2019-02-02T02:27:03.665Z,30.17
2019-02-02T02:28:08.183Z,33.80
2019-02-02T02:29:13.249Z,28.30
2019-02-02T02:30:19.571Z,30.33
2019-02-02T02:31:24.100Z,31.70
2019-02-02T02:32:28.570Z,30.67
2019-02-02T02:33:33.046Z,33.50
2019-02-02T02:34:37.629Z,36.17
2019-02-02T02:35:42.139Z,30.77
2019-02-02T02:36:46.532Z,33.03
2019-02-02T02:37:51.056Z,31.40
2019-02-02T02:38:55.602Z,35.03
2019-02-02T02:40:00.330Z,29.73
2019-02-02T02:41:05.010Z,32.50
2019-02-02T02:42:09.404Z,32.20
2019-02-02T02:43:16.169Z,31.23
2019-02-02T02:44:20.713Z,34.53
2019-02-02T02:45:25.109Z,34.50
2019-02-02T02:46:29.689Z,34.83
2019-02-02T02:47:34.297Z,35.87
2019-02-02T02:48:38.750Z,33.30
2019-02-02T02:49:43.247Z,31.97
2019-02-02T02:50:47.806Z,33.13
2019-02-02T02:51:52.279Z,35.33
2019-02-02T02:52:56.727Z,38.13
2019-02-02T02:54:01.152Z,33.77
2019-02-02T02:55:06.641Z,34.53
2019-02-02T02:56:11.219Z,33.73
2019-02-02T02:57:15.856Z,34.60
2019-02-02T02:58:20.454Z,36.47
2019-02-02T02:59:24.886Z,32.77
2019-02-02T03:00:29.709Z,35.93
2019-02-02T03:01:34.244Z,32.50
2019-02-02T03:02:38.741Z,35.00
2019-02-02T03:03:43.214Z,32.90
2019-02-02T03:04:47.697Z,36.27
2019-02-02T03:05:52.110Z,33.00
2019-02-02T03:06:56.608Z,34.33
2019-02-02T03:08:01.241Z,31.10
2019-02-02T03:09:09.303Z,30.67
2019-02-02T03:10:15.249Z,31.93
2019-02-02T03:11:19.767Z,31.50
2019-02-02T03:12:24.609Z,32.77
2019-02-02T03:13:29.068Z,32.80
2019-02-02T03:14:33.521Z,31.63
2019-02-02T03:15:37.928Z,34.40
2019-02-02T03:16:42.495Z,28.80
2019-02-02T03:17:47.233Z,30.20
2019-02-02T03:18:53.092Z,34.17
2019-02-02T03:19:57.647Z,37.50
2019-02-02T03:21:02.059Z,39.00
2019-02-02T03:22:06.462Z,31.70
2019-02-02T03:23:11.007Z,37.30
2019-02-02T03:24:15.438Z,29.57
2019-02-02T03:25:22.157Z,33.97
2019-02-02T03:26:27.088Z,31.40
2019-02-02T03:27:31.574Z,32.80
2019-02-02T03:28:36.096Z,33.27
2019-02-02T03:29:40.559Z,30.33
2019-02-02T03:30:44.970Z,30.20
2019-02-02T03:31:49.734Z,31.10
2019-02-02T03:32:54.256Z,30.17
2019-02-02T03:33:58.810Z,30.97
2019-02-02T03:35:03.453Z,34.93
2019-02-02T03:36:07.838Z,30.87
2019-02-02T03:37:14.445Z,33.50
2019-02-02T03:38:18.908Z,30.00
2019-02-02T03:39:23.708Z,31.17
2019-02-02T03:40:28.305Z,31.13
2019-02-02T03:41:32.849Z,31.33
2019-02-02T03:42:37.271Z,33.20
2019-02-02T03:43:41.787Z,30.47
2019-02-02T03:44:46.267Z,30.93
2019-02-02T03:45:50.777Z,30.23
2019-02-02T03:46:55.255Z,29.90
2019-02-02T03:47:59.804Z,33.53
2019-02-02T03:49:04.292Z,29.53
2019-02-02T03:50:09.307Z,31.37
2019-02-02T03:51:14.051Z,32.23
2019-02-02T03:52:18.499Z,30.93
2019-02-02T03:53:23.146Z,30.93
2019-02-02T03:54:27.728Z,26.73
2019-02-02T03:55:32.181Z,32.30
2019-02-02T03:56:36.628Z,30.00
2019-02-02T03:57:41.155Z,29.93
2019-02-02T03:58:45.584Z,31.03
2019-02-02T03:59:50.097Z,30.03
2019-02-02T04:00:54.559Z,33.00
2019-02-02T04:01:59.224Z,28.73
2019-02-02T04:03:03.735Z,31.07
2019-02-02T04:04:08.212Z,28.33
2019-02-02T04:05:15.992Z,27.27
2019-02-02T04:06:20.417Z,31.87
2019-02-02T04:07:25.062Z,32.10
2019-02-02T04:08:29.651Z,32.40
2019-02-02T04:09:34.190Z,28.67
2019-02-02T04:10:38.655Z,26.47
2019-02-02T04:11:43.555Z,27.23
2019-02-02T04:12:48.235Z,31.17
2019-02-02T04:13:52.682Z,26.97
2019-02-02T04:14:57.146Z,32.70
2019-02-02T04:16:01.977Z,30.53
2019-02-02T04:17:06.412Z,33.10
2019-02-02T04:18:11.026Z,30.57
2019-02-02T04:19:15.806Z,31.57
2019-02-02T04:20:21.773Z,32.83
2019-02-02T04:21:26.334Z,29.93
2019-02-02T04:22:30.899Z,30.27
2019-02-02T04:23:35.381Z,28.33
2019-02-02T04:24:40.013Z,27.87
2019-02-02T04:25:44.384Z,29.73
2019-02-02T04:26:48.810Z,30.27
2019-02-02T04:27:53.201Z,31.23
2019-02-02T04:28:57.696Z,29.10
2019-02-02T04:30:02.304Z,29.70
2019-02-02T04:31:06.804Z,28.63
2019-02-02T04:32:11.183Z,30.07
2019-02-02T04:33:16.159Z,29.20
2019-02-02T04:34:20.517Z,28.33
2019-02-02T04:35:25.197Z,27.60
2019-02-02T04:36:29.719Z,27.90
2019-02-02T04:37:34.153Z,31.57
2019-02-02T04:38:38.731Z,31.80
2019-02-02T04:39:43.147Z,28.53
2019-02-02T04:40:47.577Z,31.57
2019-02-02T04:41:52.012Z,30.00
2019-02-02T04:42:56.516Z,29.10
2019-02-02T04:44:01.156Z,26.47
2019-02-02T04:45:06.952Z,30.73
2019-02-02T04:46:11.428Z,30.13
2019-02-02T04:47:16.403Z,28.80
2019-02-02T04:48:20.806Z,27.27
2019-02-02T04:49:25.468Z,26.97
2019-02-02T04:50:29.919Z,27.80
2019-02-02T04:51:34.317Z,27.93
2019-02-02T04:52:38.785Z,26.40
2019-02-02T04:53:43.328Z,30.10
2019-02-02T04:54:47.717Z,28.37
2019-02-02T04:55:52.094Z,28.27
2019-02-02T04:56:56.522Z,27.57
2019-02-02T04:58:01.072Z,26.40
2019-02-02T04:59:05.527Z,27.63
2019-02-02T05:00:13.882Z,28.63
2019-02-02T05:01:18.669Z,30.47
2019-02-02T05:02:24.028Z,30.07
2019-02-02T05:03:28.574Z,41.10
2019-02-02T05:04:33.305Z,29.00
2019-02-02T05:05:37.642Z,25.93
2019-02-02T05:06:42.036Z,29.97
2019-02-02T05:07:46.488Z,31.07
2019-02-02T05:08:50.963Z,28.17
2019-02-02T05:09:55.495Z,31.80
2019-02-02T05:10:59.913Z,28.07
2019-02-02T05:12:04.531Z,26.53
2019-02-02T05:13:09.032Z,25.63
2019-02-02T05:14:13.539Z,26.77
2019-02-02T05:15:18.577Z,26.77
2019-02-02T05:16:23.083Z,25.90
2019-02-02T05:17:27.524Z,29.63
2019-02-02T05:18:31.968Z,24.90
2019-02-02T05:19:36.451Z,26.20
2019-02-02T05:20:40.904Z,28.33
2019-02-02T05:21:45.384Z,28.97
2019-02-02T05:22:49.972Z,27.57
2019-02-02T05:23:54.438Z,27.70
2019-02-02T05:24:58.915Z,28.33
2019-02-02T05:26:03.371Z,28.77
2019-02-02T05:27:07.794Z,26.93
2019-02-02T05:28:12.317Z,24.33
2019-02-02T05:29:17.253Z,27.93
2019-02-02T05:30:26.784Z,28.90
2019-02-02T05:31:31.221Z,25.93
2019-02-02T05:32:35.648Z,29.20
2019-02-02T05:33:40.164Z,29.03
2019-02-02T05:34:44.618Z,30.47
2019-02-02T05:35:49.104Z,29.80
2019-02-02T05:36:53.601Z,27.87
2019-02-02T05:37:58.002Z,27.30
2019-02-02T05:39:03.754Z,25.30
2019-02-02T05:40:10.067Z,27.77
2019-02-02T05:41:14.530Z,29.03
2019-02-02T05:42:18.920Z,26.03
2019-02-02T05:43:23.389Z,27.30
2019-02-02T05:44:27.980Z,27.23
2019-02-02T05:45:32.561Z,26.87
2019-02-02T05:46:37.084Z,29.47
2019-02-02T05:47:41.479Z,35.53
2019-02-02T05:48:45.900Z,30.13
2019-02-02T05:49:50.362Z,27.27
2019-02-02T05:50:54.801Z,30.37
2019-02-02T05:51:59.285Z,28.07
2019-02-02T05:53:03.674Z,28.53
2019-02-02T05:54:08.283Z,27.80
2019-02-02T05:55:13.605Z,28.60
2019-02-02T05:56:18.000Z,24.90
2019-02-02T05:57:23.546Z,27.27
2019-02-02T05:58:28.017Z,33.10
2019-02-02T05:59:32.533Z,26.57
2019-02-02T06:00:40.661Z,26.70
2019-02-02T06:01:45.158Z,26.93
2019-02-02T06:02:49.659Z,27.17
2019-02-02T06:03:54.244Z,30.43
2019-02-02T06:04:58.677Z,26.30
2019-02-02T06:06:03.232Z,26.43
2019-02-02T06:07:07.734Z,26.67
2019-02-02T06:08:12.251Z,30.23
2019-02-02T06:09:18.422Z,29.53
2019-02-02T06:10:22.936Z,24.73
2019-02-02T06:11:27.347Z,27.23
2019-02-02T06:12:31.790Z,27.37
2019-02-02T06:13:36.295Z,29.63
2019-02-02T06:14:40.986Z,25.93
2019-02-02T06:15:45.469Z,29.67
2019-02-02T06:16:50.094Z,32.87
2019-02-02T06:17:54.561Z,28.27
2019-02-02T06:18:59.029Z,31.20
2019-02-02T06:20:03.620Z,26.27
2019-02-02T06:21:08.226Z,28.43
2019-02-02T06:22:12.674Z,28.63
2019-02-02T06:23:17.441Z,28.40
2019-02-02T06:24:21.941Z,26.43
2019-02-02T06:25:26.676Z,25.87
2019-02-02T06:26:31.191Z,24.60
2019-02-02T06:27:35.649Z,27.70
2019-02-02T06:28:40.334Z,25.63
2019-02-02T06:29:44.918Z,26.13
2019-02-02T06:30:49.418Z,32.47
2019-02-02T06:31:53.871Z,28.10
2019-02-02T06:32:58.930Z,28.07
2019-02-02T06:34:04.199Z,27.23
2019-02-02T06:35:10.550Z,26.30
2019-02-02T06:36:15.068Z,29.03
2019-02-02T06:37:19.763Z,28.70
2019-02-02T06:38:24.240Z,25.93
2019-02-02T06:39:28.937Z,28.73
2019-02-02T06:40:33.449Z,30.73
2019-02-02T06:41:37.923Z,27.37
2019-02-02T06:42:42.570Z,29.67
2019-02-02T06:43:47.059Z,27.27
2019-02-02T06:44:51.518Z,30.07
2019-02-02T06:45:56.105Z,26.50
2019-02-02T06:47:00.556Z,28.37
2019-02-02T06:48:05.474Z,29.90
2019-02-02T06:49:10.237Z,30.23
2019-02-02T06:50:15.903Z,30.47
2019-02-02T06:51:20.694Z,28.30
2019-02-02T06:52:25.107Z,29.87
2019-02-02T06:53:29.925Z,28.30
2019-02-02T06:54:34.517Z,29.00
2019-02-02T06:55:38.982Z,28.93
2019-02-02T06:56:43.396Z,31.03
2019-02-02T06:57:47.880Z,29.17
2019-02-02T06:58:52.304Z,29.10
2019-02-02T06:59:56.836Z,31.73
2019-02-02T07:01:01.317Z,32.50
2019-02-02T07:02:05.877Z,36.07
2019-02-02T07:03:11.946Z,29.63
2019-02-02T07:04:16.463Z,32.30
2019-02-02T07:05:21.609Z,32.30
2019-02-02T07:06:26.058Z,33.40
2019-02-02T07:07:30.802Z,34.43
2019-02-02T07:08:35.332Z,34.80
2019-02-02T07:09:39.999Z,29.20
2019-02-02T07:10:44.572Z,30.00
2019-02-02T07:11:49.156Z,35.13
2019-02-02T07:12:53.689Z,34.43
2019-02-02T07:13:58.279Z,34.33
2019-02-02T07:15:02.692Z,33.87
2019-02-02T07:16:07.211Z,33.77
2019-02-02T07:17:11.914Z,33.53
2019-02-02T07:18:16.357Z,33.80
2019-02-02T07:19:21.099Z,35.47
2019-02-02T07:20:26.180Z,32.67
2019-02-02T07:21:30.629Z,33.43
2019-02-02T07:22:35.178Z,33.10
2019-02-02T07:23:39.680Z,30.63
2019-02-02T07:24:44.471Z,32.97
2019-02-02T07:25:48.946Z,34.63
2019-02-02T07:26:53.902Z,34.83
2019-02-02T07:27:58.381Z,32.80
2019-02-02T07:29:02.968Z,33.27
2019-02-02T07:30:13.624Z,37.23
2019-02-02T07:31:18.033Z,33.13
2019-02-02T07:32:22.387Z,34.83
2019-02-02T07:33:26.819Z,35.83
2019-02-02T07:34:31.292Z,33.93
2019-02-02T07:35:35.728Z,33.23
2019-02-02T07:36:40.334Z,31.30
2019-02-02T07:37:44.675Z,33.57
2019-02-02T07:38:49.108Z,34.97
2019-02-02T07:39:53.659Z,33.03
2019-02-02T07:40:58.108Z,32.80
2019-02-02T07:42:02.526Z,33.60
2019-02-02T07:43:06.938Z,33.43
2019-02-02T07:44:11.498Z,31.23
2019-02-02T07:45:24.442Z,31.37
2019-02-02T07:46:31.709Z,31.73
2019-02-02T07:47:36.285Z,36.97
2019-02-02T07:48:40.769Z,34.37
2019-02-02T07:49:45.263Z,31.43
2019-02-02T07:50:50.435Z,32.33
2019-02-02T07:51:55.022Z,34.30
2019-02-02T07:52:59.453Z,33.97
2019-02-02T07:54:05.848Z,35.47
2019-02-02T07:55:12.275Z,33.57
2019-02-02T07:56:16.906Z,34.50
2019-02-02T07:57:21.448Z,37.20
2019-02-02T07:58:25.959Z,33.93
2019-02-02T07:59:30.654Z,37.37
2019-02-02T08:00:41.330Z,34.90
2019-02-02T08:01:42.945Z,36.50
2019-02-02T08:02:47.357Z,36.80
2019-02-02T08:03:51.816Z,36.90
2019-02-02T08:04:56.342Z,36.43
2019-02-02T08:06:00.844Z,39.27
2019-02-02T08:07:05.385Z,35.83
2019-02-02T08:08:10.043Z,36.97
2019-02-02T08:09:14.613Z,40.83
2019-02-02T08:10:19.288Z,38.03
2019-02-02T08:11:23.707Z,40.00
2019-02-02T08:12:28.710Z,39.60
2019-02-02T08:13:33.283Z,42.07
2019-02-02T08:14:37.872Z,37.90
2019-02-02T08:15:42.788Z,38.17
2019-02-02T08:16:47.400Z,36.23
2019-02-02T08:17:51.913Z,39.40
2019-02-02T08:18:56.619Z,39.73
2019-02-02T08:20:01.253Z,42.87
2019-02-02T08:21:06.604Z,39.53
2019-02-02T08:22:11.133Z,43.53
2019-02-02T08:23:15.821Z,43.63
2019-02-02T08:24:20.325Z,39.40
2019-02-02T08:25:25.455Z,39.23
2019-02-02T08:26:30.012Z,42.33
2019-02-02T08:27:34.566Z,40.73
2019-02-02T08:28:39.262Z,36.83
2019-02-02T08:29:43.813Z,36.97
2019-02-02T08:30:52.581Z,45.50
2019-02-02T08:31:54.671Z,43.47
2019-02-02T08:32:59.774Z,39.33
2019-02-02T08:34:04.686Z,42.93
2019-02-02T08:35:09.445Z,44.80
2019-02-02T08:36:14.234Z,37.60
2019-02-02T08:37:18.664Z,43.97
2019-02-02T08:38:23.276Z,39.17
2019-02-02T08:39:29.168Z,42.23
2019-02-02T08:40:34.017Z,44.10
2019-02-02T08:41:38.516Z,38.47
2019-02-02T08:42:43.101Z,43.27
2019-02-02T08:43:47.810Z,37.93
2019-02-02T08:44:52.278Z,39.83
2019-02-02T08:45:56.855Z,48.90
2019-02-02T08:47:01.303Z,40.83
2019-02-02T08:48:05.855Z,43.47
2019-02-02T08:49:10.620Z,42.57
2019-02-02T08:50:23.680Z,44.40
2019-02-02T08:51:28.119Z,43.97
2019-02-02T08:52:32.588Z,51.67
2019-02-02T08:53:36.981Z,48.80
2019-02-02T08:54:41.538Z,44.83
2019-02-02T08:55:46.108Z,44.90
2019-02-02T08:56:50.702Z,44.27
2019-02-02T08:57:55.213Z,47.50
2019-02-02T08:58:59.896Z,49.90
2019-02-02T09:00:05.502Z,46.60
2019-02-02T09:01:11.835Z,47.13
2019-02-02T09:02:16.481Z,43.93
2019-02-02T09:03:21.069Z,47.57
2019-02-02T09:04:28.490Z,46.40
2019-02-02T09:05:32.974Z,47.73
2019-02-02T09:06:38.991Z,46.07
2019-02-02T09:07:44.075Z,44.67
2019-02-02T09:08:48.538Z,50.27
2019-02-02T09:09:53.385Z,46.20
2019-02-02T09:10:57.957Z,46.60
2019-02-02T09:12:02.525Z,44.90
2019-02-02T09:13:07.020Z,47.30
2019-02-02T09:14:11.562Z,45.43
2019-02-02T09:15:16.356Z,49.30
2019-02-02T09:16:20.823Z,43.93
2019-02-02T09:17:25.484Z,51.77
2019-02-02T09:18:30.072Z,48.07
2019-02-02T09:19:34.607Z,49.30
2019-02-02T09:20:41.688Z,48.00
2019-02-02T09:21:50.263Z,46.17
2019-02-02T09:23:03.838Z,47.57
2019-02-02T09:24:01.074Z,49.73
2019-02-02T09:25:07.048Z,50.57
2019-02-02T09:26:11.861Z,47.87
2019-02-02T09:27:16.291Z,51.23
2019-02-02T09:28:20.690Z,46.53
2019-02-02T09:29:25.411Z,48.17
2019-02-02T09:30:32.587Z,47.63
2019-02-02T09:31:37.073Z,48.03
2019-02-02T09:32:41.606Z,45.30
2019-02-02T09:33:46.160Z,45.23
2019-02-02T09:34:53.204Z,49.27
2019-02-02T09:35:58.011Z,49.80
2019-02-02T09:37:02.429Z,47.57
2019-02-02T09:38:06.936Z,48.70
2019-02-02T09:39:11.562Z,47.07
2019-02-02T09:40:17.496Z,48.80
2019-02-02T09:41:22.091Z,46.63
2019-02-02T09:42:26.564Z,48.20
2019-02-02T09:43:31.035Z,44.37
2019-02-02T09:44:35.537Z,49.20
2019-02-02T09:45:40.036Z,49.93
2019-02-02T09:46:44.424Z,47.60
2019-02-02T09:47:49.010Z,50.63
2019-02-02T09:48:53.492Z,44.23
2019-02-02T09:49:57.872Z,45.33
2019-02-02T09:51:02.330Z,47.20
2019-02-02T09:52:06.858Z,45.40
2019-02-02T09:53:11.598Z,46.67
2019-02-02T09:54:26.452Z,47.37
2019-02-02T09:55:23.357Z,45.50
2019-02-02T09:56:27.796Z,46.33
2019-02-02T09:57:32.284Z,45.93
2019-02-02T09:58:36.689Z,46.50
2019-02-02T09:59:41.162Z,44.53
2019-02-02T10:00:45.594Z,47.67
2019-02-02T10:01:50.136Z,47.53
2019-02-02T10:02:54.824Z,48.37
2019-02-02T10:03:59.306Z,49.47
2019-02-02T10:05:03.883Z,46.10
2019-02-02T10:06:08.297Z,47.00
2019-02-02T10:07:12.903Z,49.60
2019-02-02T10:08:17.409Z,52.00
2019-02-02T10:09:22.083Z,50.73
2019-02-02T10:10:28.163Z,50.27
2019-02-02T10:11:32.763Z,48.37
2019-02-02T10:12:37.473Z,44.27
2019-02-02T10:13:42.150Z,47.47
2019-02-02T10:14:46.507Z,47.70
2019-02-02T10:15:50.958Z,46.83
2019-02-02T10:16:55.349Z,49.00
2019-02-02T10:17:59.879Z,46.13
2019-02-02T10:19:04.424Z,42.43
2019-02-02T10:20:11.023Z,47.93
2019-02-02T10:21:15.527Z,51.40
2019-02-02T10:22:20.000Z,44.43
2019-02-02T10:23:24.350Z,51.13
2019-02-02T10:24:28.875Z,46.97
2019-02-02T10:25:33.505Z,53.13
2019-02-02T10:26:37.905Z,46.57
2019-02-02T10:27:42.366Z,46.33
2019-02-02T10:28:46.796Z,42.47
2019-02-02T10:29:51.289Z,43.80
2019-02-02T10:30:56.242Z,47.10
2019-02-02T10:32:00.845Z,47.93
2019-02-02T10:33:05.514Z,48.10
2019-02-02T10:34:12.317Z,53.00
2019-02-02T10:35:16.458Z,48.67
2019-02-02T10:36:23.828Z,43.50
2019-02-02T10:37:28.635Z,48.37
2019-02-02T10:38:33.881Z,46.73
2019-02-02T10:39:38.396Z,45.77
2019-02-02T10:40:43.059Z,52.43
2019-02-02T10:41:47.514Z,43.90
2019-02-02T10:42:52.142Z,52.60
2019-02-02T10:43:56.624Z,46.23
2019-02-02T10:45:01.133Z,39.60
2019-02-02T10:46:05.951Z,52.13
2019-02-02T10:47:10.776Z,47.47
2019-02-02T10:48:15.322Z,56.90
2019-02-02T10:49:20.325Z,50.00
2019-02-02T10:50:25.561Z,47.73
2019-02-02T10:51:30.191Z,50.07
2019-02-02T10:52:34.775Z,46.93
2019-02-02T10:53:39.264Z,48.57
2019-02-02T10:54:43.806Z,53.17
2019-02-02T10:55:48.430Z,53.90
2019-02-02T10:56:53.124Z,52.20
2019-02-02T10:57:57.635Z,51.07
2019-02-02T10:59:02.246Z,50.37
2019-02-02T11:00:09.568Z,48.80
2019-02-02T11:01:13.961Z,47.50
2019-02-02T11:02:18.417Z,49.57
2019-02-02T11:03:22.868Z,51.73
2019-02-02T11:04:27.494Z,55.10
2019-02-02T11:05:32.290Z,50.70
2019-02-02T11:06:36.737Z,49.70
2019-02-02T11:07:41.283Z,50.93
2019-02-02T11:08:45.736Z,47.10
2019-02-02T11:09:50.286Z,51.47
2019-02-02T11:10:55.054Z,53.60
2019-02-02T11:11:59.541Z,50.00
2019-02-02T11:13:04.120Z,46.13
2019-02-02T11:14:08.589Z,52.20
2019-02-02T11:15:14.415Z,55.03
2019-02-02T11:16:18.924Z,55.20
2019-02-02T11:17:23.396Z,51.03
2019-02-02T11:18:27.857Z,50.83
2019-02-02T11:19:32.650Z,49.00
2019-02-02T11:20:37.391Z,54.30
2019-02-02T11:21:42.056Z,51.03
2019-02-02T11:22:46.612Z,53.37
2019-02-02T11:23:51.320Z,50.03
2019-02-02T11:24:55.817Z,56.13
2019-02-02T11:26:00.500Z,52.53
2019-02-02T11:27:05.218Z,57.97
2019-02-02T11:28:09.718Z,50.60
2019-02-02T11:29:17.019Z,53.87
2019-02-02T11:30:21.990Z,54.43
2019-02-02T11:31:26.612Z,48.67
2019-02-02T11:32:31.084Z,54.57
2019-02-02T11:33:35.545Z,57.17
2019-02-02T11:34:40.072Z,55.17
2019-02-02T11:35:44.596Z,57.13
2019-02-02T11:36:49.090Z,51.73
2019-02-02T11:37:53.946Z,55.23
2019-02-02T11:38:59.599Z,58.00
2019-02-02T11:40:04.690Z,55.23
2019-02-02T11:41:09.337Z,59.27
2019-02-02T11:42:13.966Z,55.30
2019-02-02T11:43:18.701Z,51.27
2019-02-02T11:44:23.640Z,56.13
2019-02-02T11:45:28.728Z,52.87
2019-02-02T11:46:33.240Z,57.97
2019-02-02T11:47:37.889Z,62.57
2019-02-02T11:48:42.321Z,60.73
2019-02-02T11:49:46.931Z,58.90
2019-02-02T11:50:51.554Z,59.77
2019-02-02T11:51:56.901Z,52.17
2019-02-02T11:53:01.713Z,61.13
2019-02-02T11:54:06.875Z,52.80
2019-02-02T11:55:12.095Z,54.80
2019-02-02T11:56:16.690Z,54.40
2019-02-02T11:57:23.881Z,57.27
2019-02-02T11:58:28.883Z,57.97
2019-02-02T11:59:33.469Z,58.57
2019-02-02T12:00:40.100Z,55.87
2019-02-02T12:01:44.664Z,56.33
2019-02-02T12:02:49.838Z,54.50
2019-02-02T12:03:54.694Z,56.67
2019-02-02T12:04:59.489Z,54.13
2019-02-02T12:06:04.217Z,56.57
2019-02-02T12:07:09.002Z,56.73
2019-02-02T12:08:13.813Z,60.90
2019-02-02T12:09:18.306Z,58.17
2019-02-02T12:10:24.125Z,61.90
2019-02-02T12:11:28.886Z,56.60
2019-02-02T12:12:33.325Z,57.33
2019-02-02T12:13:37.865Z,55.47
2019-02-02T12:14:42.462Z,56.33
2019-02-02T12:15:46.899Z,56.90
2019-02-02T12:16:51.629Z,59.63
2019-02-02T12:17:56.292Z,57.00
2019-02-02T12:19:01.002Z,58.97
2019-02-02T12:20:06.975Z,59.97
2019-02-02T12:21:11.831Z,59.23
2019-02-02T12:22:16.357Z,58.13
2019-02-02T12:23:21.108Z,54.33
2019-02-02T12:24:25.727Z,53.50
2019-02-02T12:25:30.307Z,58.63
2019-02-02T12:26:34.969Z,56.10
2019-02-02T12:27:39.399Z,55.97
2019-02-02T12:28:44.069Z,53.77
2019-02-02T12:29:48.615Z,58.13
2019-02-02T12:30:53.421Z,56.57
2019-02-02T12:31:58.158Z,56.30
2019-02-02T12:33:03.678Z,59.70
2019-02-02T12:34:08.224Z,56.53
2019-02-02T12:35:15.290Z,61.57
2019-02-02T12:36:19.882Z,66.60
2019-02-02T12:37:24.273Z,59.60
2019-02-02T12:38:28.713Z,61.37
2019-02-02T12:39:33.344Z,64.33
2019-02-02T12:40:37.803Z,58.80
2019-02-02T12:41:42.368Z,61.80
2019-02-02T12:42:46.888Z,56.67
2019-02-02T12:43:51.345Z,65.87
2019-02-02T12:44:55.979Z,63.57
2019-02-02T12:46:00.401Z,63.13
2019-02-02T12:47:05.371Z,61.20
2019-02-02T12:48:10.263Z,59.10
2019-02-02T12:49:14.811Z,65.57
2019-02-02T12:50:19.317Z,58.63
2019-02-02T12:51:23.773Z,63.97
2019-02-02T12:52:28.303Z,59.03
2019-02-02T12:53:33.368Z,54.00
2019-02-02T12:54:37.801Z,62.07
2019-02-02T12:55:42.365Z,67.57
2019-02-02T12:56:46.913Z,61.30
2019-02-02T12:57:51.343Z,68.73
2019-02-02T12:58:56.230Z,66.50
2019-02-02T13:00:00.834Z,64.53
2019-02-02T13:01:05.683Z,74.33
2019-02-02T13:02:10.496Z,67.77
2019-02-02T13:03:15.076Z,65.33
2019-02-02T13:04:19.784Z,62.90
2019-02-02T13:05:24.788Z,74.37
2019-02-02T13:06:29.285Z,60.90
2019-02-02T13:07:34.033Z,68.67
2019-02-02T13:08:38.699Z,69.00
2019-02-02T13:09:43.260Z,64.97
2019-02-02T13:10:47.887Z,63.60
2019-02-02T13:11:52.326Z,66.37
2019-02-02T13:12:57.173Z,69.00
2019-02-02T13:14:01.770Z,65.60
2019-02-02T13:15:07.076Z,71.27
2019-02-02T13:16:11.937Z,64.80
2019-02-02T13:17:16.481Z,71.10
2019-02-02T13:18:20.982Z,69.57
2019-02-02T13:19:25.455Z,68.60
2019-02-02T13:20:29.923Z,68.30
2019-02-02T13:21:34.937Z,73.53
2019-02-02T13:22:39.345Z,68.47
2019-02-02T13:23:43.803Z,73.37
2019-02-02T13:24:48.302Z,72.47
2019-02-02T13:26:04.659Z,74.73
2019-02-02T13:27:19.522Z,74.10
2019-02-02T13:28:23.974Z,72.80
2019-02-02T13:29:28.391Z,71.70
2019-02-02T13:30:34.800Z,69.70
2019-02-02T13:31:39.248Z,68.03
2019-02-02T13:32:50.002Z,71.30
2019-02-02T13:33:50.225Z,71.43
2019-02-02T13:34:57.858Z,72.77
2019-02-02T13:36:02.341Z,71.13
2019-02-02T13:37:06.861Z,72.70
2019-02-02T13:38:11.439Z,76.87
2019-02-02T13:39:15.950Z,68.30
2019-02-02T13:40:21.055Z,68.60
2019-02-02T13:41:25.489Z,67.53
2019-02-02T13:42:29.912Z,71.13
2019-02-02T13:43:34.611Z,64.53
2019-02-02T13:44:39.137Z,69.40
2019-02-02T13:45:43.598Z,66.23
2019-02-02T13:46:48.217Z,67.13
2019-02-02T13:47:52.827Z,69.23
2019-02-02T13:48:57.185Z,64.30
2019-02-02T13:50:01.704Z,65.77
2019-02-02T13:51:06.487Z,66.73
2019-02-02T13:52:11.055Z,65.97
2019-02-02T13:53:15.709Z,67.93
2019-02-02T13:54:21.088Z,64.60
2019-02-02T13:55:25.522Z,63.13